Time;durP1;ratioP1;P1;durP2;ratioP2;P2;SDS_P1;SDS_P2;PMS_P1;PMS_P2;Temp;Humidity;BMP_temperature;BMP_pressure;BME280_temperature;BME280_humidity;BME280_pressure;Samples;Min_cycle;Max_cycle;Signal;HPM_P1;HPM_P2
2023/04/07 00:02:25;;;;;;;4.33;3.90;;;-0.50;94.60;-1.00;100825.00;;;;4906266;28;87954;-66
2023/04/07 00:04:51;;;;;;;10.10;4.90;;;-0.50;94.70;-1.00;100839.00;;;;4905653;28;90083;-66
2023/04/07 00:07:17;;;;;;;7.00;4.80;;;-0.50;94.90;-1.00;100825.00;;;;4912245;28;117347;-66
2023/04/07 00:09:42;;;;;;;6.33;4.13;;;-0.60;95.10;-1.00;100817.00;;;;4908965;28;111035;-66
2023/04/07 00:12:08;;;;;;;7.57;4.77;;;-0.60;95.20;-1.00;100823.00;;;;4906091;28;102303;-66
2023/04/07 00:14:34;;;;;;;5.77;4.80;;;-0.60;95.40;-1.00;100824.00;;;;4909286;28;117070;-66
2023/04/07 00:16:59;;;;;;;5.90;4.03;;;-0.70;95.70;-1.00;100816.00;;;;4909763;28;88179;-66
2023/04/07 00:19:25;;;;;;;9.23;5.33;;;-0.60;95.80;-1.00;100824.00;;;;4906394;28;101225;-66
2023/04/07 00:21:53;;;;;;;9.00;6.27;;;-0.50;96.00;-1.00;100829.00;;;;4908045;28;87224;-65
2023/04/07 00:24:18;;;;;;;12.60;6.20;;;-0.50;96.10;-1.00;100820.00;;;;4908079;28;88225;-65
2023/04/07 00:26:44;;;;;;;12.27;5.37;;;-0.60;96.20;-1.00;100819.00;;;;4907119;28;118110;-65
2023/04/07 00:29:10;;;;;;;8.13;5.17;;;-0.60;96.30;-1.00;100816.00;;;;4906080;28;108636;-65
2023/04/07 00:31:35;;;;;;;6.93;4.83;;;-0.60;96.40;-1.00;100822.00;;;;4907434;28;89073;-65
2023/04/07 00:34:01;;;;;;;8.70;5.93;;;-0.50;96.70;-1.00;100823.00;;;;4906772;28;117743;-66
2023/04/07 00:36:27;;;;;;;9.43;5.43;;;-0.50;96.90;-1.00;100820.00;;;;4906323;28;88433;-65
2023/04/07 00:38:53;;;;;;;7.40;5.03;;;-0.50;96.90;-0.90;100816.00;;;;4907843;28;87711;-65
2023/04/07 00:41:19;;;;;;;6.67;5.03;;;-0.50;97.10;-0.90;100813.00;;;;4910916;28;108864;-68
2023/04/07 00:43:57;;;;;;;8.63;4.73;;;-0.50;97.20;-0.90;100809.00;;;;4906337;28;88194;-66
2023/04/07 00:46:23;;;;;;;6.50;5.07;;;-0.50;97.30;-0.90;100814.00;;;;4907762;28;117216;-66
2023/04/07 00:48:49;;;;;;;7.30;5.90;;;-0.50;97.30;-0.90;100796.00;;;;4905051;28;88741;-66
2023/04/07 00:51:14;;;;;;;11.07;5.33;;;0.30;97.70;-0.90;100798.00;;;;4922556;28;87998;-66
2023/04/07 00:53:41;;;;;;;8.33;4.87;;;-0.50;97.50;-0.90;100807.00;;;;4908059;28;88951;-66
2023/04/07 00:56:06;;;;;;;10.50;5.40;;;-0.50;97.60;-0.90;100797.00;;;;4909034;28;95977;-66
2023/04/07 00:58:32;;;;;;;9.30;4.90;;;-0.50;97.60;-0.90;100805.00;;;;4910373;28;101877;-66
2023/04/07 01:01:12;;;;;;;7.80;5.80;;;-0.80;97.60;-0.90;100800.00;;;;4910741;28;109422;-66
2023/04/07 01:03:51;;;;;;;8.40;5.07;;;-0.50;97.90;-0.90;100796.00;;;;4905017;28;88459;-66
2023/04/07 01:06:23;;;;;;;7.47;5.10;;;-0.50;97.90;-0.90;100800.00;;;;4923543;28;101220;-66
2023/04/07 01:09:18;;;;;;;10.53;5.87;;;-0.50;98.00;-0.90;100802.00;;;;4903918;28;91823;-66
2023/04/07 01:12:09;;;;;;;14.33;8.63;;;-0.40;98.00;-0.90;100792.00;;;;4909953;28;86950;-66
2023/04/07 01:14:51;;;;;;;8.73;6.13;;;-0.50;98.00;-1.00;100790.00;;;;4922895;28;88018;-65
2023/04/07 01:17:20;;;;;;;11.10;7.00;;;-0.40;98.20;-0.90;100792.00;;;;4906083;28;88015;-66
2023/04/07 01:19:52;;;;;;;12.30;7.70;;;-0.60;98.30;-0.90;100785.00;;;;4903170;28;109673;-66
2023/04/07 01:22:26;;;;;;;11.87;8.37;;;-0.60;98.40;-0.90;100786.00;;;;4908521;28;87629;-65
2023/04/07 01:25:17;;;;;;;11.50;6.77;;;-0.50;98.60;-1.00;100792.00;;;;4906821;28;88108;-65
2023/04/07 01:27:52;;;;;;;12.43;7.73;;;-0.40;98.70;-1.00;100791.00;;;;4891819;28;99873;-65
2023/04/07 01:30:19;;;;;;;8.33;6.47;;;-0.60;98.70;-1.00;100786.00;;;;4908034;28;96007;-66
2023/04/07 01:32:50;;;;;;;9.77;6.77;;;-0.50;98.90;-1.00;100783.00;;;;4906095;28;109043;-66
2023/04/07 01:35:17;;;;;;;8.03;6.50;;;-0.70;98.90;-1.10;100780.00;;;;4904195;28;88825;-66
2023/04/07 01:37:45;;;;;;;10.63;6.50;;;0.20;99.40;-1.10;100778.00;;;;4905313;28;88502;-66
2023/04/07 01:40:11;;;;;;;10.43;6.77;;;-0.60;99.30;-1.10;100771.00;;;;4903846;28;87892;-66
2023/04/07 01:42:38;;;;;;;10.47;6.83;;;-0.60;99.40;-1.10;100763.00;;;;4905096;28;108979;-66
2023/04/07 01:45:06;;;;;;;7.03;5.23;;;-0.60;99.50;-1.10;100768.00;;;;4908077;28;89220;-65
2023/04/07 01:47:33;;;;;;;8.47;6.37;;;-0.70;99.60;-1.10;100769.00;;;;4912902;28;111423;-66
2023/04/07 01:50:04;;;;;;;10.00;7.10;;;-0.70;99.60;-1.10;100769.00;;;;4912592;28;91463;-66
2023/04/07 01:52:31;;;;;;;10.77;6.80;;;-0.80;99.60;-1.10;100767.00;;;;4906147;28;87841;-67
2023/04/07 01:54:57;;;;;;;9.43;6.33;;;-0.70;99.90;-1.10;100774.00;;;;4911967;28;108519;-66
2023/04/07 01:57:23;;;;;;;7.43;5.93;;;-0.70;99.90;-1.10;100769.00;;;;4910476;28;95640;-66
2023/04/07 01:59:48;;;;;;;11.93;6.40;;;-0.70;99.90;-1.10;100767.00;;;;4908243;28;87985;-66
2023/04/07 02:02:14;;;;;;;8.47;5.57;;;-0.70;99.90;-1.10;100761.00;;;;4906044;28;108896;-66
2023/04/07 02:04:55;;;;;;;7.93;5.37;;;-0.70;99.90;-1.00;100774.00;;;;4906997;28;88803;-67
2023/04/07 02:07:31;;;;;;;12.13;6.40;;;-0.60;99.90;-1.00;100766.00;;;;4889611;28;90452;-66
2023/04/07 02:10:02;;;;;;;7.97;5.20;;;-0.60;99.90;-0.90;100768.00;;;;4904409;28;90824;-66
2023/04/07 02:12:30;;;;;;;7.07;5.27;;;-0.50;99.90;-0.90;100757.00;;;;4906305;28;90902;-67
2023/04/07 02:14:56;;;;;;;7.60;5.27;;;-0.40;99.90;-0.90;100766.00;;;;4909059;28;87969;-66
2023/04/07 02:17:24;;;;;;;8.77;5.83;;;-0.50;99.90;-0.90;100762.00;;;;4902140;28;117251;-66
2023/04/07 02:19:52;;;;;;;6.57;5.17;;;-0.40;99.90;-0.80;100763.00;;;;4906191;28;110734;-66
2023/04/07 02:22:17;;;;;;;8.80;5.43;;;-0.50;99.90;-0.80;100767.00;;;;4919389;28;102454;-66
2023/04/07 02:24:43;;;;;;;9.50;5.47;;;-0.50;99.90;-0.80;100766.00;;;;4907123;28;108700;-66
2023/04/07 02:27:09;;;;;;;8.83;5.40;;;-0.50;99.90;-0.90;100763.00;;;;4905509;28;88750;-67
2023/04/07 02:29:35;;;;;;;6.03;4.43;;;0.30;99.90;-0.90;100757.00;;;;4909180;28;96228;-66
2023/04/07 02:32:00;;;;;;;7.57;5.13;;;-0.50;99.90;-0.90;100751.00;;;;4907906;28;87988;-66
2023/04/07 02:34:26;;;;;;;9.30;6.07;;;-0.50;99.90;-0.80;100752.00;;;;4906741;28;117653;-66
2023/04/07 02:36:52;;;;;;;6.47;4.37;;;-0.40;99.90;-0.80;100755.00;;;;4905040;28;119470;-67
2023/04/07 02:39:17;;;;;;;5.53;4.57;;;-0.40;99.90;-0.80;100760.00;;;;4905326;28;108581;-66
2023/04/07 02:41:43;;;;;;;5.33;4.43;;;-0.40;99.90;-0.80;100755.00;;;;4906595;28;104119;-66
2023/04/07 02:44:09;;;;;;;8.43;5.60;;;-0.40;99.90;-0.80;100753.00;;;;4906600;28;89229;-66
2023/04/07 02:46:34;;;;;;;6.43;4.47;;;-0.40;99.90;-0.80;100755.00;;;;4905606;28;87805;-67
2023/04/07 02:49:00;;;;;;;12.03;5.57;;;-0.40;99.90;-0.80;100760.00;;;;4907731;28;89670;-66
2023/04/07 02:51:29;;;;;;;7.20;5.17;;;0.00;99.90;-0.80;100761.00;;;;4907460;28;87390;-67
2023/04/07 02:53:54;;;;;;;13.97;4.80;;;-0.30;99.90;-0.80;100746.00;;;;4906390;28;87917;-66
2023/04/07 02:56:21;;;;;;;6.87;5.10;;;-0.40;99.90;-0.80;100750.00;;;;4905403;28;87855;-67
2023/04/07 02:58:47;;;;;;;5.63;4.37;;;-0.40;99.90;-0.90;100749.00;;;;4904896;28;109796;-66
2023/04/07 03:01:12;;;;;;;5.33;4.83;;;-0.50;99.90;-0.90;100743.00;;;;4907319;28;108358;-66
2023/04/07 03:03:38;;;;;;;6.97;4.33;;;-0.50;99.90;-0.90;100743.00;;;;4906421;28;88170;-66
2023/04/07 03:06:04;;;;;;;7.00;4.30;;;-0.50;99.90;-1.00;100738.00;;;;4902934;28;88613;-66
2023/04/07 03:08:30;;;;;;;7.40;4.93;;;-0.60;99.90;-1.00;100745.00;;;;4903694;28;109837;-67
2023/04/07 03:10:56;;;;;;;8.27;4.73;;;-0.60;99.90;-1.00;100743.00;;;;4903625;28;108712;-66
2023/04/07 03:13:21;;;;;;;5.40;4.13;;;-0.70;99.90;-1.00;100740.00;;;;4905472;28;89012;-66
2023/04/07 03:15:47;;;;;;;4.93;4.07;;;-0.70;99.90;-1.00;100730.00;;;;4905544;28;108820;-66
2023/04/07 03:18:13;;;;;;;5.40;4.17;;;-0.70;99.90;-1.00;100746.00;;;;4907344;28;99573;-66
2023/04/07 03:20:40;;;;;;;7.30;5.03;;;-0.70;99.90;-1.00;100739.00;;;;4908357;28;88079;-66
2023/04/07 03:23:06;;;;;;;11.20;4.43;;;-0.70;99.90;-1.00;100727.00;;;;4907770;28;89746;-67
2023/04/07 03:25:32;;;;;;;11.10;5.20;;;-0.70;99.90;-1.00;100727.00;;;;4908496;28;111059;-66
2023/04/07 03:27:58;;;;;;;6.00;4.17;;;-0.60;99.90;-1.00;100729.00;;;;4906660;28;108143;-66
2023/04/07 03:30:24;;;;;;;5.17;4.00;;;-0.60;99.90;-1.00;100732.00;;;;4902415;28;109009;-66
2023/04/07 03:32:50;;;;;;;6.97;4.57;;;-0.50;99.90;-1.00;100729.00;;;;4905023;28;88090;-66
2023/04/07 03:35:15;;;;;;;7.60;3.83;;;-0.60;99.90;-1.00;100726.00;;;;4904108;28;115233;-66
2023/04/07 03:37:41;;;;;;;5.87;4.30;;;-0.60;99.90;-1.00;100719.00;;;;4910486;28;108525;-66
2023/04/07 03:40:07;;;;;;;7.67;4.33;;;-0.50;99.90;-1.00;100715.00;;;;4911556;28;87016;-66
2023/04/07 03:42:33;;;;;;;5.80;4.00;;;-0.50;99.90;-1.00;100715.00;;;;4909900;28;106817;-66
2023/04/07 03:44:59;;;;;;;6.10;4.80;;;-0.60;99.90;-1.00;100711.00;;;;4910546;28;116814;-67
2023/04/07 03:47:24;;;;;;;5.50;4.40;;;-0.50;99.90;-1.00;100711.00;;;;4909982;28;110936;-66
2023/04/07 03:49:50;;;;;;;7.63;5.00;;;-0.60;99.90;-1.00;100709.00;;;;4908977;28;108209;-66
2023/04/07 03:52:16;;;;;;;4.80;4.00;;;-0.60;99.90;-0.90;100704.00;;;;4910065;28;117263;-67
2023/04/07 03:54:42;;;;;;;6.10;4.20;;;-0.60;99.90;-0.90;100714.00;;;;4911664;28;87989;-66
2023/04/07 03:57:07;;;;;;;7.10;4.37;;;-0.50;99.90;-0.90;100708.00;;;;4913400;28;87956;-65
2023/04/07 03:59:49;;;;;;;6.07;4.63;;;-0.50;99.90;-0.90;100713.00;;;;4910136;28;108981;-67
2023/04/07 04:02:16;;;;;;;8.63;4.57;;;-0.50;99.90;-0.90;100712.00;;;;4908529;28;88621;-66
2023/04/07 04:04:41;;;;;;;8.30;5.63;;;-0.50;99.90;-0.90;100720.00;;;;4909931;28;103867;-67
2023/04/07 04:07:07;;;;;;;8.90;6.03;;;-0.50;99.90;-0.90;100723.00;;;;4908006;28;111085;-66
2023/04/07 04:09:33;;;;;;;9.33;7.00;;;-0.50;99.90;-0.90;100727.00;;;;4906402;28;108150;-67
2023/04/07 04:12:02;;;;;;;7.27;5.60;;;-0.40;99.90;-0.90;100709.00;;;;4908853;28;118791;-66
2023/04/07 04:14:27;;;;;;;8.33;5.20;;;-0.40;99.90;-0.80;100722.00;;;;4909372;28;89560;-67
2023/04/07 04:16:53;;;;;;;8.17;5.03;;;-0.50;99.90;-0.90;100711.00;;;;4907749;28;108761;-67
2023/04/07 04:19:19;;;;;;;7.00;4.97;;;-0.50;99.90;-0.80;100714.00;;;;4909029;28;88022;-66
2023/04/07 04:21:45;;;;;;;5.63;4.27;;;-0.40;99.90;-0.80;100733.00;;;;4907234;28;88764;-66
2023/04/07 04:24:11;;;;;;;6.20;3.70;;;-0.30;99.90;-0.70;100720.00;;;;4905363;28;116846;-67
2023/04/07 04:26:36;;;;;;;4.83;3.40;;;-0.40;99.90;-0.70;100705.00;;;;4906840;28;109557;-66
2023/04/07 04:29:02;;;;;;;6.10;4.37;;;-0.30;99.90;-0.60;100716.00;;;;4907694;28;107722;-67
2023/04/07 04:31:28;;;;;;;6.00;4.13;;;-0.30;99.90;-0.60;100714.00;;;;4908961;28;88944;-67
2023/04/07 04:33:54;;;;;;;7.30;4.43;;;-0.20;99.90;-0.60;100726.00;;;;4905662;28;118901;-66
2023/04/07 04:36:19;;;;;;;8.10;4.63;;;-0.20;99.90;-0.50;100720.00;;;;4907143;28;88828;-67
2023/04/07 04:38:45;;;;;;;5.37;4.10;;;-0.20;99.90;-0.50;100722.00;;;;4905472;28;90062;-67
2023/04/07 04:41:11;;;;;;;3.03;2.73;;;-0.10;99.90;-0.50;100713.00;;;;4906558;28;117299;-67
2023/04/07 04:43:36;;;;;;;2.87;2.63;;;-0.10;99.90;-0.40;100714.00;;;;4902134;28;113662;-66
2023/04/07 04:46:02;;;;;;;9.27;4.63;;;0.00;99.90;-0.40;100714.00;;;;4907154;28;88106;-67
2023/04/07 04:48:28;;;;;;;5.97;4.30;;;0.00;99.90;-0.30;100718.00;;;;4906134;28;107543;-66
2023/04/07 04:50:53;;;;;;;7.87;4.83;;;0.00;99.90;-0.30;100717.00;;;;4904608;28;116916;-67
2023/04/07 04:53:19;;;;;;;7.50;4.57;;;1.00;99.90;-0.20;100712.00;;;;4903513;28;88630;-67
2023/04/07 04:55:50;;;;;;;6.40;4.83;;;0.10;99.90;-0.20;100721.00;;;;4903907;28;109821;-67
2023/04/07 04:58:17;;;;;;;10.13;6.90;;;0.10;99.90;-0.20;100723.00;;;;4906147;28;87781;-67
2023/04/07 05:00:43;;;;;;;9.00;4.73;;;0.20;99.90;-0.10;100716.00;;;;4905887;28;88843;-66
2023/04/07 05:03:09;;;;;;;6.93;4.33;;;0.10;99.90;-0.10;100720.00;;;;4906372;28;110026;-67
2023/04/07 05:05:34;;;;;;;7.67;5.53;;;0.30;99.90;0.00;100717.00;;;;4903629;28;110663;-67
2023/04/07 05:08:00;;;;;;;5.80;4.90;;;0.30;99.90;0.00;100727.00;;;;4905095;28;107702;-68
2023/04/07 05:10:25;;;;;;;10.90;6.53;;;0.30;99.90;0.00;100716.00;;;;4904184;28;117000;-66
2023/04/07 05:12:51;;;;;;;9.30;4.63;;;0.40;99.90;0.00;100720.00;;;;4905204;28;117036;-67
2023/04/07 05:15:17;;;;;;;8.73;6.13;;;0.40;99.90;0.10;100720.00;;;;4905031;28;106354;-67
2023/04/07 05:17:42;;;;;;;9.33;5.30;;;0.40;99.90;0.20;100717.00;;;;4908123;28;101707;-67
2023/04/07 05:20:09;;;;;;;4.80;4.00;;;0.40;99.90;0.30;100721.00;;;;4905303;28;88735;-67
2023/04/07 05:22:35;;;;;;;4.37;3.77;;;0.60;99.90;0.40;100725.00;;;;4904839;28;88829;-66
2023/04/07 05:25:01;;;;;;;9.60;4.03;;;0.70;99.90;0.50;100719.00;;;;4904563;28;89027;-67
2023/04/07 05:27:27;;;;;;;4.87;4.40;;;0.80;99.90;0.60;100717.00;;;;4905147;28;99531;-66
2023/04/07 05:29:52;;;;;;;8.73;5.10;;;0.90;99.90;0.80;100711.00;;;;4904877;28;88020;-67
2023/04/07 05:32:18;;;;;;;4.23;3.90;;;1.00;99.90;0.90;100724.00;;;;4905323;28;88056;-66
2023/04/07 05:34:44;;;;;;;6.37;5.23;;;1.60;99.90;1.00;100712.00;;;;4905549;28;108568;-66
2023/04/07 05:37:10;;;;;;;8.17;4.60;;;1.30;99.90;1.20;100726.00;;;;4898868;28;88008;-67
2023/04/07 05:39:35;;;;;;;6.83;5.33;;;1.40;99.90;1.30;100726.00;;;;4906252;28;88188;-67
2023/04/07 05:42:01;;;;;;;10.13;5.57;;;1.50;99.90;1.40;100728.00;;;;4905421;28;111147;-67
2023/04/07 05:44:27;;;;;;;6.03;5.43;;;1.60;99.90;1.50;100733.00;;;;4904032;28;87742;-66
2023/04/07 05:46:53;;;;;;;6.47;5.10;;;1.70;99.90;1.60;100723.00;;;;4904197;28;107062;-67
2023/04/07 05:49:19;;;;;;;8.73;5.87;;;1.80;99.90;1.70;100729.00;;;;4906958;28;119370;-67
2023/04/07 05:51:44;;;;;;;6.07;4.97;;;1.90;99.90;1.70;100740.00;;;;4904403;28;91919;-67
2023/04/07 05:54:10;;;;;;;10.00;5.67;;;2.00;99.90;1.80;100731.00;;;;4904351;28;104324;-67
2023/04/07 05:56:36;;;;;;;9.60;6.53;;;2.10;99.90;1.80;100734.00;;;;4904323;28;87650;-67
2023/04/07 05:59:02;;;;;;;12.10;7.77;;;2.20;99.90;1.90;100730.00;;;;4903316;28;117452;-67
2023/04/07 06:01:28;;;;;;;13.87;8.33;;;2.10;99.90;2.00;100738.00;;;;4904624;28;88923;-67
2023/04/07 06:03:54;;;;;;;15.27;6.23;;;2.20;99.90;2.10;100726.00;;;;4902381;28;87855;-67
2023/04/07 06:06:20;;;;;;;11.47;5.23;;;2.30;99.90;2.20;100730.00;;;;4903852;28;87242;-67
2023/04/07 06:08:46;;;;;;;9.53;5.90;;;2.40;99.90;2.30;100736.00;;;;4902637;28;112082;-67
2023/04/07 06:11:11;;;;;;;10.67;6.37;;;2.50;99.90;2.40;100730.00;;;;4905720;28;88747;-67
2023/04/07 06:13:37;;;;;;;14.73;9.30;;;2.60;99.90;2.50;100727.00;;;;4905341;28;108238;-67
2023/04/07 06:16:05;;;;;;;15.83;8.87;;;2.70;99.90;2.60;100721.00;;;;4905949;28;108976;-67
2023/04/07 06:18:31;;;;;;;11.03;7.93;;;2.80;99.90;2.70;100736.00;;;;4903636;28;88018;-66
2023/04/07 06:20:56;;;;;;;14.77;7.93;;;3.00;99.90;2.90;100734.00;;;;4904745;28;88841;-67
2023/04/07 06:23:22;;;;;;;17.07;7.97;;;3.00;99.90;3.00;100732.00;;;;4904320;28;104164;-67
2023/04/07 06:25:50;;;;;;;9.97;6.63;;;3.10;99.90;3.20;100738.00;;;;4905962;28;107227;-66
2023/04/07 06:28:28;;;;;;;12.23;7.00;;;3.50;99.90;3.40;100740.00;;;;4903681;28;89001;-67
2023/04/07 06:30:54;;;;;;;10.13;7.27;;;3.50;99.90;3.70;100751.00;;;;4901942;28;116330;-67
2023/04/07 06:33:24;;;;;;;6.83;5.67;;;3.80;99.90;3.90;100745.00;;;;4900868;28;87902;-68
2023/04/07 06:35:50;;;;;;;10.60;7.40;;;4.00;99.90;4.20;100752.00;;;;4908167;28;88290;-67
2023/04/07 06:38:16;;;;;;;9.63;5.83;;;4.30;99.90;4.50;100740.00;;;;4905857;28;89474;-67
2023/04/07 06:40:42;;;;;;;8.07;4.93;;;4.50;99.90;4.80;100749.00;;;;4904761;28;89990;-67
2023/04/07 06:43:07;;;;;;;9.27;5.03;;;4.80;99.90;5.10;100754.00;;;;4902586;28;109804;-67
2023/04/07 06:45:36;;;;;;;10.40;5.27;;;5.10;99.90;5.40;100745.00;;;;4906821;28;109647;-66
2023/04/07 06:48:02;;;;;;;7.10;4.67;;;5.70;99.90;5.70;100751.00;;;;4903141;28;88248;-66
2023/04/07 06:50:27;;;;;;;7.67;4.53;;;5.70;99.90;5.90;100749.00;;;;4905950;28;114638;-66
2023/04/07 06:52:53;;;;;;;6.43;4.47;;;5.90;99.40;6.20;100748.00;;;;4905552;28;111083;-66
2023/04/07 06:55:19;;;;;;;8.50;4.83;;;6.10;98.80;6.40;100747.00;;;;4905142;28;87296;-66
2023/04/07 06:57:45;;;;;;;5.00;3.83;;;6.30;97.90;6.50;100754.00;;;;4902474;28;112087;-66
2023/04/07 07:00:11;;;;;;;8.30;5.10;;;6.50;97.30;6.50;100746.00;;;;4903327;28;88301;-66
2023/04/07 07:02:36;;;;;;;4.87;3.47;;;6.70;96.80;6.60;100751.00;;;;4905615;28;88926;-65
2023/04/07 07:05:03;;;;;;;3.90;3.10;;;7.20;96.30;6.70;100759.00;;;;4902451;28;108161;-66
2023/04/07 07:07:29;;;;;;;4.63;2.90;;;6.70;95.80;6.70;100744.00;;;;4901858;28;90132;-67
2023/04/07 07:09:55;;;;;;;7.60;3.83;;;6.80;95.50;6.80;100751.00;;;;4902209;28;91596;-67
2023/04/07 07:12:21;;;;;;;5.57;3.53;;;7.00;95.10;6.80;100758.00;;;;4901844;28;108555;-68
2023/04/07 07:14:46;;;;;;;6.57;4.00;;;6.90;94.70;6.80;100758.00;;;;4904097;28;107443;-67
2023/04/07 07:17:12;;;;;;;4.30;3.27;;;6.90;94.70;6.90;100746.00;;;;4900701;28;116642;-66
2023/04/07 07:19:41;;;;;;;6.17;3.80;;;7.00;94.80;7.00;100757.00;;;;4905169;28;97521;-66
2023/04/07 07:22:07;;;;;;;5.13;4.63;;;7.60;94.90;7.00;100758.00;;;;4903813;28;87976;-66
2023/04/07 07:24:33;;;;;;;5.20;4.70;;;7.60;94.50;7.10;100755.00;;;;4903125;28;107837;-66
2023/04/07 07:27:02;;;;;;;9.70;4.03;;;7.10;94.40;7.10;100747.00;;;;4900071;28;116891;-66
2023/04/07 07:29:28;;;;;;;8.00;4.00;;;7.10;94.10;7.10;100759.00;;;;4900931;28;88652;-66
2023/04/07 07:32:00;;;;;;;4.57;3.90;;;7.80;94.00;7.10;100762.00;;;;4905888;28;87782;-66
2023/04/07 07:34:25;;;;;;;7.73;4.80;;;7.10;93.60;7.10;100760.00;;;;4905349;28;88016;-67
2023/04/07 07:36:51;;;;;;;5.60;4.60;;;7.10;93.30;7.10;100757.00;;;;4904558;28;116244;-66
2023/04/07 07:39:17;;;;;;;7.40;4.93;;;7.20;93.20;7.20;100764.00;;;;4902703;28;87962;-66
2023/04/07 07:41:42;;;;;;;6.37;4.90;;;7.60;93.30;7.20;100763.00;;;;4904395;28;88805;-66
2023/04/07 07:44:11;;;;;;;7.90;5.10;;;7.20;93.20;7.30;100765.00;;;;4905524;28;103579;-67
2023/04/07 07:46:36;;;;;;;10.03;6.57;;;7.20;93.20;7.30;100763.00;;;;4902534;28;117028;-67
2023/04/07 07:49:04;;;;;;;5.50;4.30;;;7.30;93.20;7.40;100767.00;;;;4905128;28;117468;-67
2023/04/07 07:51:30;;;;;;;7.87;5.07;;;7.40;93.20;7.40;100770.00;;;;4903669;28;88671;-66
2023/04/07 07:53:59;;;;;;;16.33;8.73;;;7.70;93.30;7.50;100766.00;;;;4901772;28;108033;-66
2023/04/07 07:56:24;;;;;;;15.07;6.73;;;7.60;93.00;7.60;100774.00;;;;4902658;28;88796;-65
2023/04/07 07:58:50;;;;;;;14.93;6.63;;;7.60;92.40;7.60;100778.00;;;;4905341;28;116507;-66
2023/04/07 08:01:16;;;;;;;9.33;5.50;;;7.70;92.40;7.70;100770.00;;;;4904073;28;89194;-65
2023/04/07 08:03:42;;;;;;;7.23;4.93;;;7.70;92.40;7.70;100773.00;;;;4903664;28;108233;-64
2023/04/07 08:06:08;;;;;;;8.07;5.33;;;7.70;91.80;7.70;100770.00;;;;4904433;28;88416;-65
2023/04/07 08:08:34;;;;;;;8.20;5.30;;;7.80;91.60;7.90;100778.00;;;;4903787;28;87675;-66
2023/04/07 08:11:00;;;;;;;6.70;5.23;;;7.80;91.70;8.00;100781.00;;;;4904041;28;87908;-66
2023/04/07 08:13:29;;;;;;;5.57;4.97;;;8.00;91.00;8.00;100777.00;;;;4916412;28;110954;-67
2023/04/07 08:15:55;;;;;;;8.87;4.73;;;8.00;90.10;8.10;100778.00;;;;4903109;28;90866;-66
2023/04/07 08:18:21;;;;;;;8.03;4.37;;;8.10;90.00;8.20;100781.00;;;;4903481;28;118545;-66
2023/04/07 08:20:50;;;;;;;6.50;4.80;;;8.20;90.10;8.40;100776.00;;;;4905593;28;88128;-66
2023/04/07 08:23:16;;;;;;;6.43;4.77;;;8.40;90.00;8.50;100781.00;;;;4905652;28;88755;-66
2023/04/07 08:25:45;;;;;;;4.80;4.13;;;8.50;88.00;8.60;100787.00;;;;4906893;28;117957;-66
2023/04/07 08:28:10;;;;;;;6.40;4.03;;;8.60;84.90;8.70;100781.00;;;;4906122;28;89342;-66
2023/04/07 08:30:36;;;;;;;8.73;4.67;;;8.70;83.50;8.70;100791.00;;;;4905878;28;109873;-66
2023/04/07 08:33:04;;;;;;;9.77;5.43;;;8.70;82.30;8.70;100795.00;;;;4907397;28;87329;-66
2023/04/07 08:35:30;;;;;;;8.00;5.20;;;8.70;81.90;8.70;100789.00;;;;4905019;28;104864;-67
2023/04/07 08:37:56;;;;;;;10.70;5.57;;;8.70;78.20;8.60;100794.00;;;;4904618;28;116867;-66
2023/04/07 08:40:21;;;;;;;9.43;5.67;;;8.70;79.10;8.70;100796.00;;;;4907369;28;88939;-67
2023/04/07 08:42:48;;;;;;;9.27;5.67;;;8.70;78.80;8.70;100793.00;;;;4905827;28;108983;-67
2023/04/07 08:45:16;;;;;;;13.50;5.47;;;8.70;79.10;8.70;100797.00;;;;4905311;28;88053;-67
2023/04/07 08:47:42;;;;;;;8.97;5.80;;;8.80;78.80;8.80;100797.00;;;;4904966;28;100536;-65
2023/04/07 08:50:10;;;;;;;7.87;4.63;;;8.80;79.00;8.90;100798.00;;;;4905222;28;87945;-65
2023/04/07 08:52:45;;;;;;;7.60;5.00;;;8.90;78.70;8.90;100799.00;;;;4905865;28;87766;-64
2023/04/07 08:55:11;;;;;;;9.97;5.17;;;8.90;77.70;9.00;100797.00;;;;4905298;28;87979;-65
2023/04/07 08:57:37;;;;;;;10.37;4.83;;;9.00;78.20;9.10;100800.00;;;;4910963;28;87809;-65
2023/04/07 09:00:05;;;;;;;10.77;4.67;;;9.00;78.20;9.10;100796.00;;;;4917672;28;87797;-65
2023/04/07 09:02:37;;;;;;;7.03;4.93;;;9.10;77.80;9.10;100798.00;;;;4908620;28;88987;-66
2023/04/07 09:05:06;;;;;;;10.60;6.13;;;9.10;77.30;9.10;100797.00;;;;4903774;28;88937;-66
2023/04/07 09:07:34;;;;;;;9.83;5.97;;;9.20;77.10;9.20;100802.00;;;;4905423;28;89423;-66
2023/04/07 09:10:04;;;;;;;8.60;4.83;;;9.20;77.00;9.30;100801.00;;;;4908153;28;87672;-65
2023/04/07 09:12:31;;;;;;;8.97;5.27;;;9.30;76.50;9.30;100794.00;;;;4907868;28;87706;-66
2023/04/07 09:14:56;;;;;;;5.17;4.73;;;9.30;76.40;9.40;100791.00;;;;4904481;28;88012;-65
2023/04/07 09:17:25;;;;;;;4.57;3.93;;;9.30;76.10;9.40;100795.00;;;;4902239;28;117513;-67
2023/04/07 09:19:55;;;;;;;10.40;4.73;;;9.40;74.60;9.40;100789.00;;;;4904428;28;87911;-65
2023/04/07 09:22:41;;;;;;;5.07;3.70;;;9.40;75.10;9.40;100796.00;;;;4909140;28;94691;-65
2023/04/07 09:25:25;;;;;;;8.80;6.10;;;9.40;75.10;9.50;100791.00;;;;4918712;28;87849;-64
2023/04/07 09:28:02;;;;;;;8.60;5.03;;;9.50;75.40;9.60;100801.00;;;;4905875;28;88035;-65
2023/04/07 09:30:30;;;;;;;6.50;5.13;;;9.50;74.80;9.60;100795.00;;;;4902632;28;88786;-67
2023/04/07 09:32:57;;;;;;;7.27;4.67;;;9.60;73.90;9.60;100796.00;;;;4906058;28;103744;-67
2023/04/07 09:35:23;;;;;;;7.23;5.13;;;9.50;71.40;9.60;100793.00;;;;4915731;28;88007;-67
2023/04/07 09:38:08;;;;;;;7.43;5.03;;;9.50;72.40;9.60;100780.00;;;;4908129;28;89740;-67
2023/04/07 09:40:36;;;;;;;10.53;5.83;;;9.60;73.00;9.80;100787.00;;;;4904366;28;100145;-64
2023/04/07 09:43:03;;;;;;;8.40;5.10;;;9.70;73.30;10.00;100782.00;;;;4903782;28;88186;-64
2023/04/07 09:45:31;;;;;;;9.03;5.17;;;9.90;73.10;10.10;100779.00;;;;4903888;28;88742;-65
2023/04/07 09:47:57;;;;;;;7.10;5.17;;;10.00;73.00;10.30;100775.00;;;;4907135;28;87959;-65
2023/04/07 09:50:38;;;;;;;8.23;5.83;;;10.20;72.90;10.60;100786.00;;;;4904508;28;109755;-66
2023/04/07 09:53:04;;;;;;;6.30;5.17;;;10.40;72.30;10.80;100782.00;;;;4904533;28;88055;-64
2023/04/07 09:55:30;;;;;;;11.53;5.53;;;10.60;72.00;11.00;100775.00;;;;4906575;28;89066;-65
2023/04/07 09:57:56;;;;;;;8.33;4.93;;;10.90;71.00;11.30;100768.00;;;;4909722;28;117516;-65
2023/04/07 10:00:23;;;;;;;7.17;4.87;;;11.10;70.00;11.60;100780.00;;;;4906569;28;88089;-65
2023/04/07 10:02:50;;;;;;;6.37;4.70;;;11.30;68.30;11.80;100772.00;;;;4904740;28;87778;-65
2023/04/07 10:05:20;;;;;;;6.87;4.57;;;11.60;67.20;12.10;100774.00;;;;4900507;28;88735;-65
2023/04/07 10:07:46;;;;;;;11.33;6.13;;;11.80;67.00;12.30;100779.00;;;;4905649;28;89110;-65
2023/04/07 10:10:12;;;;;;;8.77;4.50;;;12.10;66.00;12.40;100783.00;;;;4906297;28;87826;-65
2023/04/07 10:12:40;;;;;;;9.50;5.17;;;12.30;63.60;12.50;100785.00;;;;4903362;28;87415;-65
2023/04/07 10:15:06;;;;;;;11.70;5.90;;;12.30;61.00;12.50;100783.00;;;;4901756;28;88719;-64
2023/04/07 10:17:32;;;;;;;7.43;5.17;;;12.40;59.60;12.60;100779.00;;;;4899674;28;110572;-64
2023/04/07 10:20:00;;;;;;;8.77;4.37;;;12.50;60.50;12.70;100773.00;;;;4901880;28;90175;-64
2023/04/07 10:22:28;;;;;;;12.30;7.07;;;12.50;60.00;12.90;100775.00;;;;4905553;28;88164;-65
2023/04/07 10:25:09;;;;;;;9.73;5.63;;;12.60;60.10;13.00;100775.00;;;;4902504;28;117360;-65
2023/04/07 10:27:49;;;;;;;6.27;3.87;;;12.80;60.40;13.20;100776.00;;;;4903636;28;88087;-64
2023/04/07 10:30:30;;;;;;;8.43;4.90;;;13.00;59.90;13.40;100781.00;;;;4918341;28;87818;-64
2023/04/07 10:32:56;;;;;;;7.57;4.65;;;13.20;59.30;13.60;100777.00;;;;4909809;28;88018;-65
2023/04/07 10:35:22;;;;;;;6.15;4.07;;;13.40;57.70;13.60;100779.00;;;;4903538;28;89159;-65
2023/04/07 10:38:06;;;;;;;5.50;4.38;;;13.40;56.80;13.50;100781.00;;;;4903548;28;88543;-65
2023/04/07 10:40:32;;;;;;;9.45;4.72;;;13.40;55.00;13.50;100778.00;;;;4904697;28;100816;-65
2023/04/07 10:42:59;;;;;;;6.43;4.43;;;13.40;54.90;13.50;100778.00;;;;4905966;28;87933;-64
2023/04/07 10:45:47;;;;;;;8.25;4.88;;;13.30;54.70;13.50;100781.00;;;;4898516;28;90323;-65
2023/04/07 10:48:16;;;;;;;5.60;3.13;;;13.40;55.00;13.60;100772.00;;;;4903028;28;89430;-66
2023/04/07 10:50:44;;;;;;;6.90;3.83;;;13.40;55.20;13.80;100773.00;;;;4904142;28;88095;-66
2023/04/07 10:53:16;;;;;;;3.97;3.58;;;13.60;54.00;13.80;100773.00;;;;4905442;28;88003;-66